Latest Coastal Weather Observations for Frankston

IDV60701

Issued at 8:21 pm EDT Saturday 6 February 2016 (issued every 10 minutes, with the page automatically refreshed every 10 minutes)

About coastal observations | Map of coastal stations | Coastal observations for VIC | Marine services | Other Formats
Station Details ID: 086371 Name: FRANKSTON AWS Lat: -38.15 Lon: 145.12 Height: 6.0 m
Data from the previous 72 hours. | See also: Recent months at Frankston
Date/Time
EDT
Temp

°C
Wind Pressure Rain
since 9am
mm
Weather Cloud Vis
km
Sea
Height
m
Swell
Dir
 
Speed
knots
Gust
knots
hPa Trend Height
m
Period
s
Dir
06/08:00pm 28.7 SE 6 11 - - - - - - - - - -
06/07:30pm 29.4 ESE 7 12 - - - - - - - - - -
06/07:00pm 30.1 SE 6 10 - - - - - - - - - -
06/06:30pm 30.4 SE 6 11 - - - - - - - - - -
06/06:00pm 30.6 SE 7 14 - - - - - - - - - -
06/05:30pm 28.0 WSW 4 4 - - - - - - - - - -
06/05:00pm 28.0 WSW 4 5 - - - - - - - - - -
06/04:30pm 26.6 WNW 4 6 - - - - - - - - - -
06/04:00pm 26.5 W 6 7 - - - - - - - - - -
06/03:30pm 26.7 W 5 7 - - - - - - - - - -
06/03:00pm 26.5 W 4 6 - - - - - - - - - -
06/02:30pm 25.0 W 4 5 - - - - - - - - - -
06/02:00pm 25.9 WSW 5 5 - - - - - - - - - -
06/01:30pm 24.8 WSW 4 4 - - - - - - - - - -
06/01:00pm 24.6 WSW 3 3 - - - - - - - - - -
06/12:30pm 24.2 W 1 2 - - - - - - - - - -
06/12:00pm 23.9 WSW 1 2 - - - - - - - - - -
06/11:30am 23.6 NNW 2 3 - - - - - - - - - -
06/11:00am 23.0 N 4 5 - - - - - - - - - -
06/10:30am 22.2 NNW 2 5 - - - - - - - - - -
06/10:00am 21.1 N 4 5 - - - - - - - - - -
06/09:30am 20.6 N 2 4 - - - - - - - - - -
06/09:00am 19.4 N 2 3 - - - - - - - - - -
06/08:30am 18.8 NNE 2 3 - - - - - - - - - -
06/08:00am 18.1 ENE 3 4 - - - - - - - - - -
06/07:30am 17.3 E 4 6 - - - - - - - - - -
06/07:00am 16.6 E 3 5 - - - - - - - - - -
06/06:30am 16.6 E 4 6 - - - - - - - - - -
06/06:00am 16.9 E 5 8 - - - - - - - - - -
06/05:30am 17.2 E 7 11 - - - - - - - - - -
06/05:00am 17.3 E 6 10 - - - - - - - - - -
06/04:30am 17.4 ESE 6 9 - - - - - - - - - -
06/04:00am 17.5 E 7 12 - - - - - - - - - -
06/03:30am 17.6 ESE 6 11 - - - - - - - - - -
06/03:00am 17.9 ESE 7 11 - - - - - - - - - -
06/02:30am 18.1 ESE 7 14 - - - - - - - - - -
06/02:00am 18.3 ESE 7 13 - - - - - - - - - -
06/01:30am 18.4 ESE 8 13 - - - - - - - - - -
06/01:00am 18.5 ESE 7 15 - - - - - - - - - -
06/12:30am 18.6 ESE 9 17 - - - - - - - - - -
06/12:00am 18.9 ESE 11 18 - - - - - - - - - -
 
Date/Time
EDT
Temp

°C
Wind Pressure Rain
since 9am
mm
Weather Cloud Vis
km
Sea
Height
m
Swell
Dir
 
Speed
knots
Gust
knots
hPa Trend Height
m
Period
s
Dir
05/11:30pm 19.2 ESE 10 21 - - - - - - - - - -
05/11:00pm 19.5 ESE 12 21 - - - - - - - - - -
05/10:30pm 19.9 ESE 9 19 - - - - - - - - - -
05/10:00pm 20.4 ESE 10 19 - - - - - - - - - -
05/09:30pm 21.0 ESE 10 21 - - - - - - - - - -
05/09:00pm 21.8 ESE 9 18 - - - - - - - - - -
05/08:30pm 22.6 ESE 9 14 - - - - - - - - - -
05/08:00pm 23.6 E 9 19 - - - - - - - - - -
05/07:30pm 24.6 ESE 10 18 - - - - - - - - - -
05/07:00pm 25.3 ESE 10 18 - - - - - - - - - -
05/06:30pm 25.8 ESE 9 16 - - - - - - - - - -
05/06:00pm 25.9 E 11 19 - - - - - - - - - -
05/05:30pm 26.4 ESE 9 18 - - - - - - - - - -
05/05:00pm 26.6 ESE 11 18 - - - - - - - - - -
05/04:30pm 27.2 ESE 9 15 - - - - - - - - - -
05/04:00pm 27.7 ESE 8 13 - - - - - - - - - -
05/03:30pm 26.8 E 9 17 - - - - - - - - - -
05/03:00pm 27.4 ESE 9 17 - - - - - - - - - -
05/02:30pm 26.7 ESE 8 16 - - - - - - - - - -
05/02:00pm 26.2 ESE 8 14 - - - - - - - - - -
05/01:30pm 25.6 ESE 8 14 - - - - - - - - - -
05/01:00pm 25.0 E 10 16 - - - - - - - - - -
05/12:30pm 25.3 E 9 17 - - - - - - - - - -
05/12:00pm 24.5 E 8 16 - - - - - - - - - -
05/11:30am 23.6 E 10 20 - - - - - - - - - -
05/11:00am 23.0 E 11 21 - - - - - - - - - -
05/10:30am 21.8 E 12 21 - - - - - - - - - -
05/10:00am 21.5 E 9 15 - - - - - - - - - -
05/09:30am 20.5 E 10 19 - - - - - - - - - -
05/09:00am 19.6 ESE 8 15 - - - - - - - - - -
05/08:30am 18.9 ESE 7 15 - - - - - - - - - -
05/08:00am 18.3 ESE 6 11 - - - - - - - - - -
05/07:30am 17.8 SE 6 10 - - - - - - - - - -
05/07:00am 17.5 SE 5 11 - - - - - - - - - -
05/06:30am 17.1 ESE 5 10 - - - - - - - - - -
05/06:00am 16.8 SE 4 9 - - - - - - - - - -
05/05:30am 16.5 SE 3 7 - - - - - - - - - -
05/05:00am 16.3 SSE 3 5 - - - - - - - - - -
05/04:30am 16.4 S 2 4 - - - - - - - - - -
05/04:00am 16.8 S 4 7 - - - - - - - - - -
05/03:30am 17.0 S 3 5 - - - - - - - - - -
05/03:00am 17.0 S 4 7 - - - - - - - - - -
05/02:30am 17.2 S 3 5 - - - - - - - - - -
05/02:00am 17.5 S 4 7 - - - - - - - - - -
05/01:30am 17.4 S 4 7 - - - - - - - - - -
05/01:00am 17.4 S 5 8 - - - - - - - - - -
05/12:30am 17.4 S 5 7 - - - - - - - - - -
05/12:00am 17.4 SSE 4 10 - - - - - - - - - -
 
Date/Time
EDT
Temp

°C
Wind Pressure Rain
since 9am
mm
Weather Cloud Vis
km
Sea
Height
m
Swell
Dir
 
Speed
knots
Gust
knots
hPa Trend Height
m
Period
s
Dir
04/11:30pm 17.3 SSE 6 9 - - - - - - - - - -
04/11:00pm 17.4 S 4 9 - - - - - - - - - -
04/10:30pm 17.5 SW 3 5 - - - - - - - - - -
04/10:00pm 17.6 SSW 4 7 - - - - - - - - - -
04/09:30pm 17.5 S 3 7 - - - - - - - - - -
04/09:00pm 17.7 S 4 9 - - - - - - - - - -
04/08:30pm 18.1 SSW 6 11 - - - - - - - - - -
04/08:00pm 18.6 S 4 9 - - - - - - - - - -
04/07:30pm 19.0 S 7 13 - - - - - - - - - -
04/07:00pm 19.5 SSW 9 14 - - - - - - - - - -
04/06:30pm 20.3 SSW 7 15 - - - - - - - - - -
04/06:00pm 20.0 S 8 13 - - - - - - - - - -
04/05:30pm 20.6 SSW 8 13 - - - - - - - - - -
04/05:00pm 20.5 SSW 8 15 - - - - - - - - - -
04/04:30pm 20.6 SSW 7 14 - - - - - - - - - -
04/04:00pm 21.2 SSW 8 15 - - - - - - - - - -
04/03:30pm 20.8 SSE 6 10 - - - - - - - - - -
04/03:00pm 20.4 S 7 13 - - - - - - - - - -
04/02:30pm 20.2 SSW 9 17 - - - - - - - - - -
04/02:00pm 21.2 S 7 14 - - - - - - - - - -
04/01:30pm 20.6 S 8 13 - - - - - - - - - -
04/01:00pm 20.5 S 5 10 - - - - - - - - - -
04/12:30pm 19.7 S 7 13 - - - - - - - - - -
04/12:00pm 19.6 S 7 12 - - - - - - - - - -
04/11:30am 19.0 SSW 9 14 - - - - - - - - - -
04/11:00am 18.3 SW 10 15 - - - - - - - - - -
04/10:30am 18.8 SSE 7 12 - - - - - - - - - -
04/10:00am 18.1 SSW 7 11 - - - - - - - - - -
04/09:30am 17.9 S 6 10 - - - - - - - - - -
04/09:00am 18.0 SW 5 9 - - - - - - - - - -
04/08:30am 16.9 SW 6 8 - - - - - - - - - -
04/08:00am 16.8 SW 5 7 - - - - - - - - - -
04/07:30am 16.7 SW 4 6 - - - - - - - - - -
04/07:00am 16.7 SW 4 5 - - - - - - - - - -
04/06:30am 16.7 SSW 3 5 - - - - - - - - - -
04/06:00am 16.6 SSW 3 6 - - - - - - - - - -
04/05:30am 16.5 SSW 2 4 - - - - - - - - - -
04/05:00am 16.5 SW 3 5 - - - - - - - - - -
04/04:30am 16.3 SW 4 7 - - - - - - - - - -
04/04:00am 16.3 SSW 4 5 - - - - - - - - - -
04/03:30am 16.5 SSW 3 5 - - - - - - - - - -
04/03:00am 16.4 SSW 2 3 - - - - - - - - - -
04/02:30am 16.4 SSW 2 5 - - - - - - - - - -
04/02:00am 16.6 SSW 5 9 - - - - - - - - - -
04/01:30am 16.8 SSW 5 8 - - - - - - - - - -
04/01:00am 17.0 SSW 7 14 - - - - - - - - - -
04/12:30am 17.1 SW 4 7 - - - - - - - - - -
04/12:00am 17.1 SW 5 8 - - - - - - - - - -
 
Date/Time
EDT
Temp

°C
Wind Pressure Rain
since 9am
mm
Weather Cloud Vis
km
Sea
Height
m
Swell
Dir
 
Speed
knots
Gust
knots
hPa Trend Height
m
Period
s
Dir
03/11:30pm 17.1 SSW 6 9 - - - - - - - - - -
03/11:00pm 17.2 SSW 3 5 - - - - - - - - - -
03/10:30pm 17.5 SSW 4 7 - - - - - - - - - -
03/10:00pm 17.6 SSW 5 10 - - - - - - - - - -
03/09:30pm 17.8 SSW 4 7 - - - - - - - - - -
03/09:00pm 17.8 SSW 3 5 - - - - - - - - - -
03/08:30pm 17.8 S 5 9 - - - - - - - - - -

Other Formats:

Comma delimited format used in spreadsheet applications
http://www.bom.gov.au/fwo/IDV60701/IDV60701.94871.axf

JavaScript Object Notation format (JSON) in row-major order
http://www.bom.gov.au/fwo/IDV60701/IDV60701.94871.json